createdAt,value
2022-09-05T00:00:05.887Z,63.30
2022-09-05T00:02:39.316Z,63.30
2022-09-05T00:05:29.245Z,63.60
2022-09-05T00:08:23.922Z,63.50
2022-09-05T00:11:43.043Z,63.60
2022-09-05T00:15:15.157Z,63.70
2022-09-05T00:20:34.840Z,63.80
2022-09-05T00:24:30.499Z,63.70
2022-09-05T00:24:36.644Z,63.70
2022-09-05T00:27:00.534Z,63.60
2022-09-05T00:31:05.771Z,63.80
2022-09-05T00:33:23.295Z,63.90
2022-09-05T00:36:17.741Z,63.70
2022-09-05T00:38:58.281Z,63.80
2022-09-05T00:41:27.175Z,63.90
2022-09-05T00:43:57.287Z,64.10
2022-09-05T00:46:32.659Z,63.70
2022-09-05T00:49:29.157Z,64.10
2022-09-05T00:51:56.334Z,63.90
2022-09-05T00:54:48.145Z,64.10
2022-09-05T00:57:52.639Z,63.90
2022-09-05T01:00:22.958Z,63.80
2022-09-05T01:03:10.117Z,63.80
2022-09-05T01:05:40.453Z,64.20
2022-09-05T01:08:23.338Z,63.90
2022-09-05T01:11:28.338Z,64.20
2022-09-05T01:14:32.418Z,63.90
2022-09-05T01:16:59.445Z,64.10
2022-09-05T01:20:19.732Z,64.10
2022-09-05T01:23:08.602Z,64.30
2022-09-05T01:25:52.536Z,64.10
2022-09-05T01:29:16.939Z,64.20
2022-09-05T01:31:42.809Z,64.10
2022-09-05T01:34:41.741Z,64.40
2022-09-05T01:37:54.229Z,64.40
2022-09-05T01:40:39.627Z,64.70
2022-09-05T01:43:19.977Z,64.60
2022-09-05T01:46:21.061Z,64.40
2022-09-05T01:48:58.364Z,64.50
2022-09-05T01:52:06.723Z,64.50
2022-09-05T01:54:58.557Z,64.50
2022-09-05T01:57:34.927Z,64.50
2022-09-05T02:00:17.214Z,64.50
2022-09-05T02:02:55.950Z,64.50
2022-09-05T02:05:47.610Z,64.50
2022-09-05T02:08:15.850Z,64.60
2022-09-05T02:10:43.004Z,64.50
2022-09-05T02:13:34.002Z,64.70
2022-09-05T02:16:19.365Z,64.70
2022-09-05T02:19:10.792Z,64.70
2022-09-05T02:21:57.567Z,64.70
2022-09-05T02:24:33.409Z,64.80
2022-09-05T02:27:53.577Z,64.70
2022-09-05T02:29:58.359Z,64.80
2022-09-05T02:32:39.261Z,64.80
2022-09-05T02:35:10.284Z,64.90
2022-09-05T02:40:45.985Z,65.00
2022-09-05T02:45:03.628Z,64.90
2022-09-05T02:45:17.650Z,64.80
2022-09-05T02:46:20.738Z,64.90
2022-09-05T02:49:43.156Z,65.20
2022-09-05T02:57:28.671Z,65.10
2022-09-05T02:57:39.662Z,65.10
2022-09-05T02:58:11.896Z,65.40
2022-09-05T03:00:47.981Z,65.30
2022-09-05T03:03:18.160Z,65.20
2022-09-05T03:05:59.729Z,65.10
2022-09-05T03:08:42.160Z,65.20
2022-09-05T03:11:15.386Z,65.30
2022-09-05T03:14:07.533Z,65.30
2022-09-05T03:17:02.527Z,65.40
2022-09-05T03:19:54.627Z,65.50
2022-09-05T03:22:37.344Z,65.40
2022-09-05T03:25:28.822Z,65.40
2022-09-05T03:28:26.616Z,65.30
2022-09-05T03:31:31.594Z,65.50
2022-09-05T03:34:37.914Z,65.50
2022-09-05T03:37:26.946Z,65.40
2022-09-05T03:40:36.661Z,65.30
2022-09-05T03:43:22.035Z,65.30
2022-09-05T03:45:58.340Z,65.30
2022-09-05T03:48:28.334Z,65.40
2022-09-05T03:57:11.556Z,65.40
2022-09-05T03:57:26.847Z,65.60
2022-09-05T03:57:41.912Z,65.40
2022-09-05T04:00:16.132Z,65.70
2022-09-05T04:08:03.335Z,65.60
2022-09-05T04:08:29.664Z,65.40
2022-09-05T04:09:02.205Z,65.50
2022-09-05T04:11:41.670Z,65.50
2022-09-05T04:14:43.198Z,65.40
2022-09-05T04:17:37.044Z,65.40
2022-09-05T04:20:40.562Z,65.30
2022-09-05T04:23:25.665Z,65.60
2022-09-05T04:26:11.006Z,65.40
2022-09-05T04:28:54.079Z,65.50
2022-09-05T04:32:18.180Z,65.20
2022-09-05T04:35:07.461Z,65.30
2022-09-05T04:37:48.879Z,65.50
2022-09-05T04:40:37.368Z,65.50
2022-09-05T04:43:13.861Z,65.50
2022-09-05T04:45:48.614Z,65.50
2022-09-05T04:48:23.260Z,65.50
2022-09-05T04:51:22.836Z,65.50
2022-09-05T04:54:18.987Z,65.60
2022-09-05T04:56:51.116Z,65.50
2022-09-05T05:03:16.303Z,65.50
2022-09-05T05:06:01.639Z,65.40
2022-09-05T05:06:16.464Z,65.50
2022-09-05T05:08:17.374Z,65.40
2022-09-05T05:17:57.331Z,65.60
2022-09-05T05:18:09.264Z,65.40
2022-09-05T05:18:15.466Z,65.50
2022-09-05T05:20:39.854Z,65.60
2022-09-05T05:23:17.097Z,65.60
2022-09-05T05:25:54.421Z,65.60
2022-09-05T05:28:46.288Z,65.70
2022-09-05T05:31:30.969Z,65.70
2022-09-05T05:34:09.759Z,65.60
2022-09-05T05:37:03.014Z,65.70
2022-09-05T05:39:33.256Z,65.70
2022-09-05T05:42:20.183Z,65.70
2022-09-05T05:44:54.714Z,65.70
2022-09-05T05:47:31.415Z,65.70
2022-09-05T05:50:02.875Z,65.90
2022-09-05T05:53:00.992Z,66.00
2022-09-05T05:55:52.977Z,65.90
2022-09-05T05:58:46.325Z,65.90
2022-09-05T06:01:36.946Z,65.90
2022-09-05T06:04:35.368Z,65.80
2022-09-05T06:07:23.669Z,65.80
2022-09-05T06:14:56.377Z,66.00
2022-09-05T06:14:57.750Z,66.10
2022-09-05T06:16:16.790Z,66.60
2022-09-05T06:19:05.663Z,66.40
2022-09-05T06:22:31.305Z,66.30
2022-09-05T06:25:22.792Z,66.40
2022-09-05T06:28:19.309Z,66.20
2022-09-05T06:31:33.694Z,66.30
2022-09-05T06:34:30.855Z,66.40
2022-09-05T06:37:25.486Z,66.60
2022-09-05T06:40:12.240Z,66.80
2022-09-05T06:43:15.309Z,66.80
2022-09-05T06:46:51.432Z,67.00
2022-09-05T06:49:37.309Z,67.20
2022-09-05T06:52:29.776Z,67.60
2022-09-05T06:55:19.054Z,67.10
2022-09-05T06:57:48.907Z,67.30
2022-09-05T07:00:23.233Z,67.30
2022-09-05T07:03:22.739Z,67.30
2022-09-05T07:06:04.772Z,67.20
2022-09-05T07:08:48.372Z,67.20
2022-09-05T07:11:20.910Z,67.20
2022-09-05T07:14:02.777Z,67.20
2022-09-05T07:16:42.022Z,67.20
2022-09-05T07:19:44.653Z,67.20
2022-09-05T07:22:44.507Z,67.10
2022-09-05T07:25:18.871Z,67.10
2022-09-05T07:28:27.054Z,67.20
2022-09-05T07:30:59.536Z,67.00
2022-09-05T07:33:29.955Z,67.10
2022-09-05T07:36:11.774Z,67.10
2022-09-05T07:38:52.040Z,67.00
2022-09-05T07:41:29.497Z,67.00
2022-09-05T07:44:23.373Z,67.00
2022-09-05T07:47:02.120Z,66.90
2022-09-05T07:49:31.172Z,66.90
2022-09-05T07:56:51.884Z,66.80
2022-09-05T07:56:53.779Z,67.00
2022-09-05T07:57:51.964Z,66.90
2022-09-05T08:00:26.962Z,66.90
2022-09-05T08:03:10.597Z,67.10
2022-09-05T08:05:48.108Z,66.90
2022-09-05T08:08:21.154Z,67.00
2022-09-05T08:11:23.277Z,66.70
2022-09-05T08:14:44.795Z,66.80
2022-09-05T08:16:58.920Z,66.80
2022-09-05T08:19:57.479Z,66.80
2022-09-05T08:22:52.822Z,66.90
2022-09-05T08:25:37.570Z,66.90
2022-09-05T08:28:41.008Z,66.60
2022-09-05T08:31:15.141Z,67.20
2022-09-05T08:33:43.625Z,66.60
2022-09-05T08:36:18.354Z,66.60
2022-09-05T08:38:46.119Z,66.70
2022-09-05T08:41:30.056Z,66.80
2022-09-05T08:46:47.736Z,66.70
2022-09-05T08:47:32.427Z,66.70
2022-09-05T08:50:41.344Z,66.80
2022-09-05T08:53:47.300Z,66.90
2022-09-05T08:56:46.349Z,66.80
2022-09-05T08:59:31.977Z,67.20
2022-09-05T09:02:46.750Z,67.20
2022-09-05T09:06:12.067Z,66.60
2022-09-05T09:08:45.979Z,66.70
2022-09-05T09:11:22.983Z,67.10
2022-09-05T09:13:54.905Z,66.80
2022-09-05T09:16:50.785Z,66.30
2022-09-05T09:19:34.368Z,66.10
2022-09-05T09:22:20.147Z,66.20
2022-09-05T09:25:15.172Z,66.20
2022-09-05T09:28:47.986Z,66.20
2022-09-05T09:31:44.196Z,66.40
2022-09-05T09:34:39.886Z,66.00
2022-09-05T09:37:31.962Z,65.90
2022-09-05T09:40:37.970Z,65.90
2022-09-05T09:43:27.439Z,65.90
2022-09-05T09:46:22.354Z,65.80
2022-09-05T09:49:23.163Z,65.80
2022-09-05T09:52:00.454Z,65.80
2022-09-05T09:54:59.828Z,65.80
2022-09-05T09:57:51.391Z,65.80
2022-09-05T10:00:21.519Z,65.70
2022-09-05T10:10:35.840Z,65.50
2022-09-05T10:10:38.273Z,65.30
2022-09-05T10:10:57.644Z,65.10
2022-09-05T10:12:39.823Z,65.30
2022-09-05T10:15:18.595Z,65.10
2022-09-05T10:18:20.417Z,65.10
2022-09-05T10:21:27.035Z,65.00
2022-09-05T10:24:21.891Z,65.10
2022-09-05T10:27:10.092Z,64.90
2022-09-05T10:30:04.927Z,64.70
2022-09-05T10:35:04.967Z,64.40
2022-09-05T10:35:49.399Z,64.50
2022-09-05T10:38:43.487Z,64.40
2022-09-05T10:41:20.949Z,64.30
2022-09-05T10:44:02.471Z,64.50
2022-09-05T10:46:50.793Z,64.50
2022-09-05T10:49:26.921Z,64.60
2022-09-05T10:52:03.541Z,64.50
2022-09-05T10:55:17.973Z,64.40
2022-09-05T10:57:58.736Z,64.50
2022-09-05T11:02:28.713Z,64.40
2022-09-05T11:03:52.722Z,64.30
2022-09-05T11:06:35.905Z,64.50
2022-09-05T11:09:19.715Z,64.40
2022-09-05T11:11:57.191Z,64.30
2022-09-05T11:14:36.075Z,64.30
2022-09-05T11:17:14.720Z,64.30
2022-09-05T11:19:56.270Z,64.30
2022-09-05T11:22:34.958Z,64.20
2022-09-05T11:25:04.975Z,64.30
2022-09-05T11:27:47.718Z,64.10
2022-09-05T11:30:30.285Z,63.90
2022-09-05T11:39:38.094Z,63.70
2022-09-05T11:39:54.296Z,63.70
2022-09-05T11:40:08.557Z,63.70
2022-09-05T11:42:41.526Z,63.80
2022-09-05T11:45:27.812Z,63.60
2022-09-05T11:48:22.813Z,63.50
2022-09-05T11:51:02.328Z,63.20
2022-09-05T11:53:57.276Z,63.10
2022-09-05T11:56:49.210Z,63.00
2022-09-05T11:59:32.975Z,62.80
2022-09-05T12:02:37.772Z,63.00
2022-09-05T12:05:49.202Z,62.50
2022-09-05T12:08:44.514Z,62.60
2022-09-05T12:11:29.691Z,62.30
2022-09-05T12:14:28.995Z,62.50
2022-09-05T12:17:35.467Z,62.70
2022-09-05T12:20:33.686Z,62.70
2022-09-05T12:24:13.198Z,62.60
2022-09-05T12:27:42.469Z,62.40
2022-09-05T12:29:46.799Z,62.70
2022-09-05T12:35:22.527Z,62.80
2022-09-05T12:36:06.806Z,62.70
2022-09-05T12:40:54.214Z,62.60
2022-09-05T12:41:44.627Z,62.30
2022-09-05T12:44:41.560Z,62.10
2022-09-05T12:47:19.466Z,62.30
2022-09-05T12:50:03.213Z,62.00
2022-09-05T12:52:46.469Z,61.80
2022-09-05T12:55:28.706Z,61.40
2022-09-05T13:02:58.903Z,61.60
2022-09-05T13:03:07.413Z,61.70
2022-09-05T13:04:13.332Z,61.80
2022-09-05T13:06:39.881Z,62.00
2022-09-05T13:09:30.796Z,62.10
2022-09-05T13:14:54.651Z,61.80
2022-09-05T13:15:39.112Z,61.60
2022-09-05T13:18:10.441Z,61.70
2022-09-05T13:21:04.518Z,61.50
2022-09-05T13:24:12.362Z,61.20
2022-09-05T13:26:50.268Z,61.10
2022-09-05T13:29:37.207Z,60.80
2022-09-05T13:38:21.155Z,60.60
2022-09-05T13:38:29.073Z,61.00
2022-09-05T13:38:49.898Z,61.10
2022-09-05T13:41:32.629Z,61.20
2022-09-05T13:44:26.737Z,60.90
2022-09-05T13:47:29.007Z,61.10
2022-09-05T13:50:05.677Z,61.00
2022-09-05T13:52:43.730Z,60.80
2022-09-05T13:55:25.303Z,60.90
2022-09-05T13:57:55.469Z,61.20
2022-09-05T14:00:41.007Z,61.20
2022-09-05T14:03:40.974Z,61.20
2022-09-05T14:06:46.439Z,61.20
2022-09-05T14:12:15.302Z,60.90
2022-09-05T14:17:57.901Z,61.10
2022-09-05T14:21:01.198Z,61.10
2022-09-05T14:23:43.444Z,61.20
2022-09-05T14:26:30.035Z,60.80
2022-09-05T14:29:18.669Z,61.10
2022-09-05T14:37:43.359Z,61.00
2022-09-05T14:37:46.431Z,60.80
2022-09-05T14:38:46.056Z,60.90
2022-09-05T14:41:53.235Z,61.10
2022-09-05T14:44:59.165Z,60.70
2022-09-05T14:47:53.515Z,60.20
2022-09-05T14:50:42.132Z,60.60
2022-09-05T14:57:56.127Z,60.70
2022-09-05T15:02:44.983Z,60.20
2022-09-05T15:02:49.219Z,60.40
2022-09-05T15:05:40.204Z,60.40
2022-09-05T15:08:52.568Z,60.20
2022-09-05T15:12:16.012Z,60.60
2022-09-05T15:13:58.657Z,60.60
2022-09-05T15:16:26.591Z,60.40
2022-09-05T15:18:56.419Z,60.30
2022-09-05T15:21:35.514Z,60.10
2022-09-05T15:24:24.047Z,60.20
2022-09-05T15:26:56.912Z,60.20
2022-09-05T15:29:34.582Z,60.20
2022-09-05T15:32:25.103Z,60.00
2022-09-05T15:34:55.581Z,59.90
2022-09-05T15:37:37.140Z,60.10
2022-09-05T15:40:22.975Z,60.10
2022-09-05T15:42:58.054Z,60.40
2022-09-05T15:45:29.995Z,60.50
2022-09-05T15:48:12.607Z,60.20
2022-09-05T15:50:50.255Z,60.40
2022-09-05T15:53:29.861Z,60.60
2022-09-05T15:56:14.160Z,60.60
2022-09-05T15:58:54.866Z,60.70
2022-09-05T16:01:59.860Z,60.50
2022-09-05T16:07:42.990Z,60.10
2022-09-05T16:10:46.539Z,59.70
2022-09-05T16:10:49.756Z,60.50
2022-09-05T16:13:15.181Z,60.00
2022-09-05T16:20:45.349Z,60.10
2022-09-05T16:23:16.667Z,60.30
2022-09-05T16:23:29.142Z,60.10
2022-09-05T16:24:59.265Z,60.00
2022-09-05T16:27:59.147Z,59.80
2022-09-05T16:30:38.879Z,59.70
2022-09-05T16:33:24.062Z,59.90
2022-09-05T16:36:04.734Z,60.00
2022-09-05T16:38:52.426Z,59.70
2022-09-05T16:41:24.606Z,59.70
2022-09-05T16:44:04.388Z,59.60
2022-09-05T16:46:44.581Z,59.60
2022-09-05T16:49:12.195Z,59.60
2022-09-05T16:52:02.004Z,59.60
2022-09-05T16:54:47.832Z,59.40
2022-09-05T16:57:23.949Z,59.70
2022-09-05T16:59:51.543Z,59.60
2022-09-05T17:02:29.036Z,59.50
2022-09-05T17:05:04.846Z,59.40
2022-09-05T17:08:09.403Z,59.40
2022-09-05T17:10:54.431Z,59.30
2022-09-05T17:13:45.854Z,59.20
2022-09-05T17:16:31.361Z,59.30
2022-09-05T17:19:01.380Z,59.20
2022-09-05T17:24:20.265Z,59.40
2022-09-05T17:29:19.512Z,59.80
2022-09-05T17:29:45.463Z,59.10
2022-09-05T17:33:45.700Z,58.20
2022-09-05T17:36:18.636Z,59.30
2022-09-05T17:38:48.865Z,59.20
2022-09-05T17:41:16.083Z,59.10
2022-09-05T17:43:51.358Z,59.00
2022-09-05T17:46:31.994Z,59.00
2022-09-05T17:49:20.048Z,58.80
2022-09-05T17:51:53.871Z,58.90
2022-09-05T17:54:28.626Z,58.80
2022-09-05T17:56:56.440Z,58.80
2022-09-05T17:59:28.381Z,58.80
2022-09-05T18:02:08.110Z,58.80
2022-09-05T18:04:47.181Z,58.80
2022-09-05T18:07:26.643Z,58.60
2022-09-05T18:10:14.632Z,58.80
2022-09-05T18:15:38.709Z,58.80
2022-09-05T18:18:08.729Z,58.80
2022-09-05T18:21:21.321Z,58.80
2022-09-05T18:24:03.340Z,58.80
2022-09-05T18:26:46.750Z,58.90
2022-09-05T18:29:57.244Z,58.80
2022-09-05T18:32:54.218Z,58.80
2022-09-05T18:36:03.093Z,58.80
2022-09-05T18:38:51.641Z,58.70
2022-09-05T18:41:23.314Z,58.80
2022-09-05T18:44:19.975Z,58.80
2022-09-05T18:46:53.803Z,59.00
2022-09-05T18:50:25.378Z,59.00
2022-09-05T18:52:36.640Z,58.80
2022-09-05T18:56:08.949Z,58.80
2022-09-05T18:58:13.701Z,59.10
2022-09-05T19:00:46.698Z,59.00
2022-09-05T19:03:30.266Z,58.90
2022-09-05T19:06:35.893Z,58.90
2022-09-05T19:09:02.811Z,59.50
2022-09-05T19:11:37.887Z,58.90
2022-09-05T19:14:53.490Z,58.80
2022-09-05T19:17:45.385Z,58.80
2022-09-05T19:20:32.182Z,58.80
2022-09-05T19:23:12.005Z,58.90
2022-09-05T19:25:44.405Z,59.00
2022-09-05T19:35:14.129Z,59.20
2022-09-05T19:36:49.131Z,59.00
2022-09-05T19:37:08.029Z,59.00
2022-09-05T19:37:27.435Z,59.00
2022-09-05T19:47:21.959Z,59.10
2022-09-05T19:47:29.443Z,59.10
2022-09-05T19:47:42.436Z,59.10
2022-09-05T19:48:34.531Z,59.20
2022-09-05T19:51:17.167Z,59.20
2022-09-05T19:54:04.445Z,59.00
2022-09-05T19:56:45.267Z,59.10
2022-09-05T19:59:34.106Z,59.30
2022-09-05T20:02:03.167Z,58.80
2022-09-05T20:04:50.760Z,58.90
2022-09-05T20:07:26.024Z,58.80
2022-09-05T20:09:54.940Z,59.20
2022-09-05T20:12:31.480Z,59.20
2022-09-05T20:15:38.892Z,59.10
2022-09-05T20:18:36.146Z,59.20
2022-09-05T20:21:23.107Z,58.90
2022-09-05T20:23:51.632Z,59.00
2022-09-05T20:26:22.673Z,59.10
2022-09-05T20:28:54.795Z,59.00
2022-09-05T20:31:27.344Z,58.80
2022-09-05T20:33:56.747Z,58.80
2022-09-05T20:43:08.993Z,58.90
2022-09-05T20:43:20.078Z,58.70
2022-09-05T20:43:27.017Z,58.70
2022-09-05T20:45:44.775Z,58.80
2022-09-05T20:54:09.827Z,58.80
2022-09-05T20:54:15.417Z,58.70
2022-09-05T20:54:27.128Z,58.70
2022-09-05T20:56:56.358Z,58.90
2022-09-05T20:59:33.555Z,58.90
2022-09-05T21:02:23.822Z,58.90
2022-09-05T21:05:20.176Z,58.70
2022-09-05T21:08:01.090Z,58.90
2022-09-05T21:10:55.790Z,58.90
2022-09-05T21:13:36.690Z,58.90
2022-09-05T21:16:27.279Z,59.00
2022-09-05T21:18:55.046Z,58.80
2022-09-05T21:21:35.074Z,59.00
2022-09-05T21:24:17.534Z,58.90
2022-09-05T21:26:47.907Z,59.10
2022-09-05T21:29:23.273Z,59.00
2022-09-05T21:31:57.527Z,59.10
2022-09-05T21:34:31.632Z,59.30
2022-09-05T21:37:07.985Z,59.20
2022-09-05T21:39:46.747Z,59.40
2022-09-05T21:47:20.336Z,59.30
2022-09-05T21:47:49.554Z,59.50
2022-09-05T21:48:10.758Z,59.60
2022-09-05T21:50:45.963Z,59.70
2022-09-05T21:58:13.039Z,59.60
2022-09-05T21:59:29.948Z,59.70
2022-09-05T21:59:35.440Z,59.80
2022-09-05T22:02:08.455Z,59.80
2022-09-05T22:04:41.776Z,59.90
2022-09-05T22:07:14.477Z,59.90
2022-09-05T22:09:42.162Z,59.90
2022-09-05T22:12:23.158Z,60.00
2022-09-05T22:15:26.410Z,60.00
2022-09-05T22:17:49.770Z,60.10
2022-09-05T22:20:21.716Z,60.20
2022-09-05T22:22:56.382Z,60.20
2022-09-05T22:25:30.970Z,60.30
2022-09-05T22:28:16.553Z,61.20
2022-09-05T22:30:43.869Z,60.60
2022-09-05T22:33:13.004Z,60.60
2022-09-05T22:35:40.945Z,60.60
2022-09-05T22:38:16.565Z,60.60
2022-09-05T22:40:47.846Z,60.70
2022-09-05T22:43:16.882Z,60.80
2022-09-05T22:45:46.998Z,60.80
2022-09-05T22:48:14.827Z,61.00
2022-09-05T22:50:42.874Z,60.90
2022-09-05T22:53:13.452Z,61.20
2022-09-05T22:55:43.276Z,61.20
2022-09-05T22:58:14.770Z,61.30
2022-09-05T23:00:44.276Z,61.40
2022-09-05T23:03:11.440Z,61.50
2022-09-05T23:05:38.735Z,61.60
2022-09-05T23:08:06.537Z,61.70
2022-09-05T23:10:35.448Z,61.70
2022-09-05T23:13:10.629Z,61.70
2022-09-05T23:15:40.944Z,61.70
2022-09-05T23:18:08.088Z,61.70
2022-09-05T23:20:37.894Z,61.70
2022-09-05T23:23:08.198Z,61.80
2022-09-05T23:25:38.702Z,62.10
2022-09-05T23:28:09.911Z,62.30
2022-09-05T23:30:38.043Z,62.30
2022-09-05T23:33:09.450Z,62.30
2022-09-05T23:35:37.425Z,62.30
2022-09-05T23:38:09.773Z,62.30
2022-09-05T23:40:37.680Z,62.30
2022-09-05T23:43:07.014Z,62.40
2022-09-05T23:45:38.004Z,62.40
2022-09-05T23:48:05.380Z,62.30
2022-09-05T23:50:32.635Z,62.40
2022-09-05T23:53:04.778Z,62.50
2022-09-05T23:55:32.987Z,62.50
2022-09-05T23:58:01.174Z,62.70
